Time;durP1;ratioP1;P1;durP2;ratioP2;P2;SDS_P1;SDS_P2;PMS_P1;PMS_P2;Temp;Humidity;BMP_temperature;BMP_pressure;BME280_temperature;BME280_humidity;BME280_pressure;Samples;Min_cycle;Max_cycle;Signal;HPM_P1;HPM_P2
2023/07/16 00:00:44;;;;;;;27.87;6.27;;;28.00;48.00;;;;;;5049531;28;20188;-69
2023/07/16 00:03:11;;;;;;;31.20;6.67;;;28.00;48.00;;;;;;5049418;28;20210;-69
2023/07/16 00:05:40;;;;;;;32.57;6.57;;;28.00;48.00;;;;;;5049233;28;20206;-70
2023/07/16 00:08:06;;;;;;;29.70;5.80;;;28.00;48.00;;;;;;5048197;28;20200;-72
2023/07/16 00:10:35;;;;;;;59.43;8.83;;;28.00;48.00;;;;;;5045469;28;20209;-68
2023/07/16 00:13:02;;;;;;;26.13;5.53;;;28.00;48.00;;;;;;5047469;28;20649;-77
2023/07/16 00:15:29;;;;;;;37.70;6.97;;;28.00;48.00;;;;;;5045548;28;20201;-76
2023/07/16 00:17:56;;;;;;;34.40;6.33;;;28.00;48.00;;;;;;5046304;28;20718;-77
2023/07/16 00:20:23;;;;;;;32.37;6.77;;;28.00;48.00;;;;;;5046880;28;20218;-78
2023/07/16 00:22:52;;;;;;;39.57;6.67;;;28.00;48.00;;;;;;5047327;28;20197;-78
2023/07/16 00:25:19;;;;;;;55.70;8.30;;;28.00;48.00;;;;;;5045155;28;20233;-79
2023/07/16 00:27:46;;;;;;;30.87;6.30;;;28.00;48.00;;;;;;5035325;28;20739;-78
2023/07/16 00:30:13;;;;;;;29.40;6.23;;;27.90;47.90;;;;;;5047441;28;20223;-69
2023/07/16 00:32:40;;;;;;;33.53;6.53;;;28.00;48.00;;;;;;5047645;28;20206;-69
2023/07/16 00:35:07;;;;;;;39.53;6.93;;;28.00;48.00;;;;;;5047956;28;20675;-69
2023/07/16 00:37:34;;;;;;;60.60;8.83;;;27.90;47.90;;;;;;5044459;28;20238;-69
2023/07/16 00:40:03;;;;;;;40.43;7.17;;;27.90;47.90;;;;;;5047406;28;20249;-69
2023/07/16 00:42:30;;;;;;;30.73;6.77;;;27.90;47.90;;;;;;5032693;28;20653;-69
2023/07/16 00:44:57;;;;;;;32.77;6.70;;;27.90;47.90;;;;;;5033355;28;20203;-79
2023/07/16 00:47:24;;;;;;;46.93;8.07;;;27.90;47.90;;;;;;5045486;28;20928;-69
2023/07/16 00:49:51;;;;;;;37.77;7.57;;;27.90;47.90;;;;;;5043010;28;20664;-70
2023/07/16 00:52:21;;;;;;;41.77;7.67;;;27.90;47.90;;;;;;5046338;28;20200;-69
2023/07/16 00:54:49;;;;;;;43.27;7.50;;;27.90;48.00;;;;;;5042219;28;20222;-69
2023/07/16 00:57:18;;;;;;;37.07;7.03;;;27.90;48.00;;;;;;5047133;28;20630;-70
2023/07/16 00:59:44;;;;;;;33.93;6.40;;;27.90;48.00;;;;;;5034434;28;20224;-76
2023/07/16 01:02:11;;;;;;;30.07;6.43;;;27.90;48.00;;;;;;5027729;28;20212;-70
2023/07/16 01:04:39;;;;;;;50.73;8.17;;;27.90;48.00;;;;;;5034647;28;20207;-69
2023/07/16 01:07:09;;;;;;;31.33;6.63;;;27.90;48.00;;;;;;5045553;28;20192;-69
2023/07/16 01:09:41;;;;;;;38.87;7.10;;;27.90;48.00;;;;;;5042195;28;20734;-69
2023/07/16 01:12:09;;;;;;;38.03;6.93;;;27.80;48.00;;;;;;5039834;28;20201;-70
2023/07/16 01:14:39;;;;;;;48.33;7.87;;;27.90;48.00;;;;;;5029405;28;20214;-69
2023/07/16 01:17:06;;;;;;;30.17;6.27;;;27.90;48.00;;;;;;5040342;28;20192;-70
2023/07/16 01:19:33;;;;;;;47.60;7.97;;;27.90;48.10;;;;;;5045879;28;20271;-69
2023/07/16 01:22:16;;;;;;;47.17;8.17;;;27.90;48.10;;;;;;5038609;28;20227;-69
2023/07/16 01:25:01;;;;;;;38.00;6.77;;;27.90;48.10;;;;;;5027391;28;20657;-70
2023/07/16 01:27:45;;;;;;;49.33;7.90;;;27.80;48.00;;;;;;5045016;28;20731;-69
2023/07/16 01:30:16;;;;;;;65.83;9.27;;;27.80;48.00;;;;;;5045433;28;20223;-70
2023/07/16 01:32:45;;;;;;;37.10;7.03;;;27.70;47.90;;;;;;5039341;28;20297;-70
2023/07/16 01:35:13;;;;;;;41.10;7.30;;;27.80;48.10;;;;;;5044859;28;20205;-69
2023/07/16 01:37:41;;;;;;;32.30;6.20;;;27.80;48.10;;;;;;5045931;28;20220;-68
2023/07/16 01:40:09;;;;;;;50.80;8.10;;;27.80;48.10;;;;;;5045926;28;20184;-71
2023/07/16 01:42:36;;;;;;;30.73;6.70;;;27.80;48.10;;;;;;5044705;28;20204;-69
2023/07/16 01:45:03;;;;;;;28.77;6.30;;;27.80;48.10;;;;;;5039039;28;20196;-69
2023/07/16 01:47:40;;;;;;;33.13;6.87;;;27.80;48.10;;;;;;5042839;28;20195;-68
2023/07/16 01:50:08;;;;;;;35.70;6.67;;;27.80;48.10;;;;;;5066570;28;20207;-69
2023/07/16 01:52:35;;;;;;;34.23;6.60;;;27.80;48.10;;;;;;5036005;28;20197;-68
2023/07/16 01:55:02;;;;;;;31.50;6.60;;;27.80;48.10;;;;;;5045114;28;20199;-69
2023/07/16 01:57:29;;;;;;;30.83;6.60;;;27.80;48.10;;;;;;5033003;28;20206;-69
2023/07/16 01:59:56;;;;;;;43.67;7.67;;;27.80;48.10;;;;;;5027811;28;20211;-69
2023/07/16 02:02:23;;;;;;;29.03;6.30;;;27.80;48.10;;;;;;5028019;28;20205;-69
2023/07/16 02:04:51;;;;;;;33.90;6.93;;;27.80;48.10;;;;;;5058648;28;20200;-69
2023/07/16 02:07:18;;;;;;;34.37;6.80;;;27.80;48.10;;;;;;5039218;28;20200;-75
2023/07/16 02:09:45;;;;;;;51.80;8.47;;;27.80;48.20;;;;;;5044977;28;20214;-69
2023/07/16 02:12:11;;;;;;;38.40;6.93;;;27.80;48.20;;;;;;5046521;28;20579;-76
2023/07/16 02:14:38;;;;;;;48.83;8.30;;;27.70;48.10;;;;;;5035750;28;20200;-69
2023/07/16 02:17:06;;;;;;;34.63;7.27;;;27.70;48.10;;;;;;5038995;28;20291;-68
2023/07/16 02:19:33;;;;;;;31.10;6.50;;;27.80;48.20;;;;;;5046439;28;20235;-71
2023/07/16 02:22:01;;;;;;;46.47;7.73;;;27.70;48.20;;;;;;5030290;28;20223;-69
2023/07/16 02:24:28;;;;;;;34.37;6.67;;;27.80;48.10;;;;;;5045694;28;20196;-69
2023/07/16 02:26:55;;;;;;;28.43;6.30;;;27.70;48.10;;;;;;5039028;28;20736;-69
2023/07/16 02:29:22;;;;;;;53.70;9.03;;;27.70;48.10;;;;;;5040955;28;20208;-68
2023/07/16 02:31:48;;;;;;;26.03;5.90;;;27.70;48.10;;;;;;5036289;28;20245;-69
2023/07/16 02:34:15;;;;;;;39.43;7.33;;;27.70;48.10;;;;;;5047146;28;20205;-69
2023/07/16 02:36:43;;;;;;;31.27;6.83;;;27.70;48.10;;;;;;5035287;28;20211;-69
2023/07/16 02:39:11;;;;;;;32.77;6.40;;;27.70;48.10;;;;;;5044314;28;20235;-69
2023/07/16 02:41:38;;;;;;;35.13;6.83;;;27.70;48.10;;;;;;5038821;28;20192;-69
2023/07/16 02:44:06;;;;;;;30.30;6.37;;;27.70;48.10;;;;;;5039366;28;20365;-69
2023/07/16 02:46:33;;;;;;;50.93;8.70;;;27.70;48.10;;;;;;5035033;28;20217;-69
2023/07/16 02:49:00;;;;;;;29.33;6.63;;;27.70;48.10;;;;;;5043096;28;20211;-69
2023/07/16 02:51:27;;;;;;;34.03;6.53;;;27.70;48.20;;;;;;5044990;28;20236;-68
2023/07/16 02:53:54;;;;;;;37.53;7.30;;;27.70;48.10;;;;;;5046439;28;20203;-69
2023/07/16 02:56:23;;;;;;;44.00;7.83;;;27.70;48.10;;;;;;5047041;28;20230;-69
2023/07/16 02:58:49;;;;;;;42.43;7.63;;;27.70;48.10;;;;;;5047312;28;20228;-70
2023/07/16 03:01:16;;;;;;;23.50;5.67;;;27.70;48.10;;;;;;5040783;28;20197;-70
2023/07/16 03:03:43;;;;;;;38.20;7.50;;;27.70;48.10;;;;;;5037354;28;20207;-70
2023/07/16 03:06:10;;;;;;;33.37;6.87;;;27.70;48.10;;;;;;5049999;28;20246;-68
2023/07/16 03:08:37;;;;;;;29.67;6.37;;;27.60;48.10;;;;;;5042979;28;20692;-71
2023/07/16 03:11:04;;;;;;;41.63;7.43;;;27.70;48.10;;;;;;5035245;28;20199;-72
2023/07/16 03:13:32;;;;;;;31.03;6.80;;;27.60;48.10;;;;;;5047068;28;20200;-72
2023/07/16 03:15:59;;;;;;;32.50;6.47;;;27.60;48.10;;;;;;5041407;28;20196;-67
2023/07/16 03:18:29;;;;;;;35.93;7.10;;;27.60;48.10;;;;;;5048482;28;20232;-69
2023/07/16 03:20:56;;;;;;;31.43;6.83;;;27.60;48.10;;;;;;5048884;28;20215;-68
2023/07/16 03:23:23;;;;;;;55.93;9.13;;;27.60;48.10;;;;;;5045819;28;20196;-68
2023/07/16 03:25:50;;;;;;;35.57;7.10;;;27.60;48.10;;;;;;5035810;28;20560;-68
2023/07/16 03:28:17;;;;;;;43.27;7.53;;;27.60;48.10;;;;;;5045517;28;20211;-69
2023/07/16 03:30:48;;;;;;;29.63;6.87;;;27.60;48.10;;;;;;5047921;28;20227;-72
2023/07/16 03:33:15;;;;;;;56.43;9.13;;;27.60;48.10;;;;;;5042127;28;20196;-71
2023/07/16 03:35:44;;;;;;;34.40;6.93;;;27.60;48.10;;;;;;5039523;28;20240;-66
2023/07/16 03:38:11;;;;;;;33.33;7.47;;;27.50;48.10;;;;;;5049416;28;20617;-66
2023/07/16 03:40:38;;;;;;;39.70;7.80;;;27.50;48.10;;;;;;5038336;28;20201;-68
2023/07/16 03:43:05;;;;;;;30.03;6.83;;;27.50;48.10;;;;;;5029624;28;20200;-66
2023/07/16 03:45:32;;;;;;;28.17;6.67;;;27.50;48.10;;;;;;5031962;28;20233;-66
2023/07/16 03:48:00;;;;;;;33.10;7.47;;;27.50;48.10;;;;;;5038294;28;20204;-67
2023/07/16 03:50:27;;;;;;;34.57;7.97;;;27.50;48.10;;;;;;5046809;28;20207;-66
2023/07/16 03:52:54;;;;;;;27.97;7.33;;;27.50;48.00;;;;;;5043184;28;20192;-68
2023/07/16 03:55:21;;;;;;;32.73;7.40;;;27.50;48.00;;;;;;5044600;28;20665;-66
2023/07/16 03:57:48;;;;;;;31.67;7.90;;;27.50;47.80;;;;;;5045973;28;20950;-67
2023/07/16 04:00:15;;;;;;;36.20;8.77;;;27.50;47.70;;;;;;5046676;28;20219;-66
2023/07/16 04:02:42;;;;;;;34.63;7.93;;;27.50;47.60;;;;;;5029706;28;20665;-67
2023/07/16 04:05:11;;;;;;;38.50;8.37;;;27.50;47.70;;;;;;5051234;28;20200;-66
2023/07/16 04:07:38;;;;;;;29.23;7.57;;;27.50;47.60;;;;;;5066944;28;20191;-67
2023/07/16 04:10:05;;;;;;;33.53;8.07;;;27.40;47.60;;;;;;5036671;28;20204;-67
2023/07/16 04:12:32;;;;;;;31.27;7.87;;;27.40;47.60;;;;;;5047276;28;20287;-67
2023/07/16 04:15:00;;;;;;;28.57;7.07;;;27.40;47.60;;;;;;5045514;28;20233;-66
2023/07/16 04:17:27;;;;;;;38.60;8.73;;;27.40;47.60;;;;;;5046751;28;20204;-68
2023/07/16 04:19:54;;;;;;;30.17;8.13;;;27.30;47.50;;;;;;5034228;28;20239;-67
2023/07/16 04:22:22;;;;;;;37.37;8.17;;;27.30;47.50;;;;;;5053913;28;20214;-67
2023/07/16 04:24:49;;;;;;;32.80;8.13;;;27.30;47.40;;;;;;5044484;28;20200;-78
2023/07/16 04:27:16;;;;;;;35.70;8.97;;;27.30;47.40;;;;;;5038851;28;20208;-71
2023/07/16 04:29:42;;;;;;;27.23;8.60;;;27.20;47.30;;;;;;5047646;28;20227;-67
2023/07/16 04:32:09;;;;;;;27.00;8.30;;;27.20;47.20;;;;;;5048881;28;20189;-66
2023/07/16 04:34:36;;;;;;;49.17;9.77;;;27.20;47.30;;;;;;5036249;28;20208;-69
2023/07/16 04:37:03;;;;;;;58.67;10.40;;;27.10;47.20;;;;;;5029602;28;20217;-67
2023/07/16 04:39:32;;;;;;;37.10;8.80;;;27.10;47.20;;;;;;5031408;28;20289;-66
2023/07/16 04:41:59;;;;;;;31.90;8.67;;;27.10;47.30;;;;;;5044269;28;20211;-66
2023/07/16 04:44:25;;;;;;;35.30;8.83;;;27.10;47.30;;;;;;5041248;28;20232;-68
2023/07/16 04:46:52;;;;;;;32.45;8.95;;;27.00;47.30;;;;;;5042045;28;20463;-67
2023/07/16 04:49:19;;;;;;;24.23;7.77;;;26.90;47.30;;;;;;5031912;28;20212;-65
2023/07/16 04:51:46;;;;;;;34.43;8.90;;;26.90;47.30;;;;;;5035850;28;20211;-65
2023/07/16 04:54:13;;;;;;;36.57;8.73;;;26.90;47.30;;;;;;5036950;28;20956;-65
2023/07/16 04:56:41;;;;;;;56.63;10.53;;;26.90;47.30;;;;;;5029408;28;20687;-65
2023/07/16 04:59:08;;;;;;;24.83;7.87;;;26.90;47.30;;;;;;5030700;28;20224;-78
2023/07/16 05:01:35;;;;;;;33.00;8.30;;;26.80;47.30;;;;;;5035934;28;20220;-66
2023/07/16 05:04:02;;;;;;;42.03;9.27;;;26.90;47.30;;;;;;5045318;28;20200;-66
2023/07/16 05:06:29;;;;;;;34.27;8.77;;;26.80;47.30;;;;;;5046293;28;20195;-65
2023/07/16 05:08:55;;;;;;;54.33;10.10;;;26.80;47.20;;;;;;5046625;28;20564;-66
2023/07/16 05:11:22;;;;;;;31.57;7.77;;;26.70;47.20;;;;;;5042818;28;20208;-65
2023/07/16 05:13:50;;;;;;;28.40;7.70;;;26.80;47.30;;;;;;5034046;28;20208;-65
2023/07/16 05:16:17;;;;;;;33.30;8.13;;;26.70;47.20;;;;;;5044453;28;20200;-67
2023/07/16 05:18:44;;;;;;;30.43;8.17;;;26.70;47.20;;;;;;5047433;28;20204;-68
2023/07/16 05:21:11;;;;;;;38.80;8.83;;;26.70;47.20;;;;;;5046866;28;20196;-65
2023/07/16 05:23:38;;;;;;;32.60;8.40;;;26.60;47.10;;;;;;5040407;28;20197;-66
2023/07/16 05:26:05;;;;;;;42.43;9.07;;;26.60;47.10;;;;;;5027872;28;20208;-77
2023/07/16 05:28:32;;;;;;;41.20;9.27;;;26.60;47.10;;;;;;5031624;28;20232;-65
2023/07/16 05:31:02;;;;;;;27.70;8.00;;;26.60;47.20;;;;;;5035584;28;20218;-68
2023/07/16 05:33:29;;;;;;;25.87;8.00;;;26.60;47.20;;;;;;5046748;28;20208;-65
2023/07/16 05:35:56;;;;;;;30.13;8.77;;;26.50;47.20;;;;;;5041133;28;20572;-67
2023/07/16 05:38:23;;;;;;;34.77;8.57;;;26.60;47.30;;;;;;5039711;28;20204;-65
2023/07/16 05:40:49;;;;;;;39.27;8.80;;;26.50;47.30;;;;;;5046747;28;20238;-65
2023/07/16 05:43:16;;;;;;;32.80;8.97;;;26.50;47.40;;;;;;5028122;28;20196;-70
2023/07/16 05:45:43;;;;;;;40.07;9.33;;;26.50;47.30;;;;;;5028010;28;20197;-65
2023/07/16 05:48:12;;;;;;;29.30;8.57;;;26.50;47.40;;;;;;5027595;28;20208;-67
2023/07/16 05:50:39;;;;;;;31.67;8.37;;;26.50;47.40;;;;;;5036018;28;20199;-65
2023/07/16 05:53:05;;;;;;;36.37;9.00;;;26.50;47.40;;;;;;5042541;28;20259;-69
2023/07/16 05:55:32;;;;;;;35.03;9.17;;;26.40;47.40;;;;;;5047929;28;20686;-66
2023/07/16 05:57:59;;;;;;;38.90;9.20;;;26.40;47.40;;;;;;5044024;28;20822;-67
2023/07/16 06:00:26;;;;;;;36.67;8.60;;;26.40;47.40;;;;;;5041490;28;20228;-65
2023/07/16 06:02:53;;;;;;;43.47;9.63;;;26.40;47.60;;;;;;5047323;28;20201;-65
2023/07/16 06:05:21;;;;;;;32.83;8.47;;;26.40;47.50;;;;;;5045410;28;20204;-65
2023/07/16 06:07:48;;;;;;;46.27;9.53;;;26.40;47.50;;;;;;5040979;28;20212;-65
2023/07/16 06:10:15;;;;;;;45.17;9.77;;;26.30;47.50;;;;;;5044844;28;20211;-66
2023/07/16 06:12:42;;;;;;;39.50;8.57;;;26.40;47.50;;;;;;5040988;28;20211;-66
2023/07/16 06:15:10;;;;;;;43.50;9.50;;;26.40;47.50;;;;;;5047664;28;20262;-66
2023/07/16 06:17:37;;;;;;;31.73;8.43;;;26.40;47.50;;;;;;5047242;28;20208;-68
2023/07/16 06:20:05;;;;;;;40.90;8.63;;;26.40;47.50;;;;;;5050017;28;20688;-67
2023/07/16 06:22:34;;;;;;;24.23;7.67;;;26.40;47.60;;;;;;5050095;28;20231;-66
2023/07/16 06:25:01;;;;;;;37.00;9.00;;;26.30;47.50;;;;;;5030619;28;20254;-66
2023/07/16 06:27:28;;;;;;;44.90;9.47;;;26.40;47.70;;;;;;5040101;28;20207;-66
2023/07/16 06:29:54;;;;;;;44.47;9.30;;;26.30;47.60;;;;;;5044334;28;20204;-65
2023/07/16 06:32:22;;;;;;;28.03;8.20;;;26.30;47.60;;;;;;5050883;28;20188;-67
2023/07/16 06:34:49;;;;;;;33.33;8.53;;;26.30;47.60;;;;;;5048927;28;21042;-64
2023/07/16 06:37:16;;;;;;;39.33;8.60;;;26.30;47.70;;;;;;5050567;28;20203;-68
2023/07/16 06:39:44;;;;;;;25.70;7.57;;;26.30;47.70;;;;;;5050597;28;20813;-72
2023/07/16 06:42:11;;;;;;;54.97;10.43;;;26.30;47.70;;;;;;5047555;28;20208;-65
2023/07/16 06:44:38;;;;;;;30.73;8.57;;;26.30;48.00;;;;;;5038508;28;20212;-65
2023/07/16 06:47:05;;;;;;;42.17;9.50;;;26.30;47.80;;;;;;5030450;28;20568;-66
2023/07/16 06:49:32;;;;;;;33.27;8.60;;;26.30;47.80;;;;;;5030306;28;20205;-68
2023/07/16 06:52:01;;;;;;;30.40;7.97;;;26.30;47.70;;;;;;5030375;28;20215;-66
2023/07/16 06:54:28;;;;;;;32.60;8.37;;;26.30;47.80;;;;;;5038652;28;20292;-65
2023/07/16 06:56:56;;;;;;;24.33;8.03;;;26.30;47.80;;;;;;5050651;28;20200;-69
2023/07/16 06:59:23;;;;;;;30.37;8.10;;;26.30;47.80;;;;;;5042995;28;20362;-66
2023/07/16 07:01:50;;;;;;;26.83;7.67;;;26.30;47.80;;;;;;5049929;28;20197;-65
2023/07/16 07:04:17;;;;;;;48.73;9.83;;;26.30;47.80;;;;;;5030133;28;20511;-65
2023/07/16 07:06:44;;;;;;;37.37;8.93;;;26.30;47.90;;;;;;5049262;28;20204;-65
2023/07/16 07:09:11;;;;;;;34.63;9.03;;;26.30;47.90;;;;;;5049994;28;20679;-65
2023/07/16 07:11:37;;;;;;;38.77;9.03;;;26.30;47.90;;;;;;5046840;28;20207;-65
2023/07/16 07:14:06;;;;;;;40.10;9.03;;;26.30;47.90;;;;;;5046997;28;20203;-68
2023/07/16 07:16:32;;;;;;;25.13;8.13;;;26.30;47.90;;;;;;5048082;28;20641;-65
2023/07/16 07:18:59;;;;;;;32.63;8.30;;;26.30;47.90;;;;;;5049312;28;20649;-79
2023/07/16 07:21:26;;;;;;;30.37;8.07;;;26.30;48.00;;;;;;5048765;28;20227;-78
2023/07/16 07:23:53;;;;;;;93.40;13.43;;;26.30;47.90;;;;;;5038309;28;20231;-73
2023/07/16 07:26:20;;;;;;;34.00;8.17;;;26.30;48.00;;;;;;5033882;28;20279;-66
2023/07/16 07:28:47;;;;;;;37.17;8.50;;;26.30;48.00;;;;;;5034858;28;20222;-74
2023/07/16 07:31:15;;;;;;;38.57;9.03;;;26.30;48.00;;;;;;5046134;28;20195;-66
2023/07/16 07:33:42;;;;;;;33.33;8.77;;;26.30;48.00;;;;;;5042119;28;20219;-76
2023/07/16 07:36:09;;;;;;;50.50;9.80;;;26.30;48.10;;;;;;5030298;28;20204;-68
2023/07/16 07:38:35;;;;;;;35.27;8.73;;;26.30;48.10;;;;;;5032037;28;20219;-72
2023/07/16 07:41:02;;;;;;;49.53;10.10;;;26.30;48.10;;;;;;5037689;28;20580;-67
2023/07/16 07:43:29;;;;;;;24.67;7.30;;;26.30;48.10;;;;;;5037405;28;20205;-75
2023/07/16 07:45:56;;;;;;;36.83;8.37;;;26.30;48.10;;;;;;5048229;28;20200;-69
2023/07/16 07:48:24;;;;;;;74.53;11.83;;;26.30;48.10;;;;;;5052176;28;20223;-72
2023/07/16 07:50:51;;;;;;;29.63;7.60;;;26.30;48.10;;;;;;5033809;28;20200;-74
2023/07/16 07:53:18;;;;;;;49.70;9.43;;;26.30;48.10;;;;;;5045845;28;20201;-70
2023/07/16 07:55:45;;;;;;;32.37;7.77;;;26.30;48.10;;;;;;5038388;28;20204;-72
2023/07/16 07:58:12;;;;;;;34.33;8.37;;;26.30;48.10;;;;;;5053463;28;20188;-66
2023/07/16 08:00:39;;;;;;;35.70;7.97;;;26.30;48.10;;;;;;5039791;28;20216;-71
2023/07/16 08:03:06;;;;;;;25.77;6.90;;;26.30;48.10;;;;;;5039121;28;20208;-66
2023/07/16 08:05:34;;;;;;;30.40;8.10;;;26.40;48.30;;;;;;5046476;28;20211;-70
2023/07/16 08:08:01;;;;;;;36.23;8.60;;;26.40;48.40;;;;;;5035631;28;20203;-67
2023/07/16 08:10:28;;;;;;;35.37;8.43;;;26.40;48.40;;;;;;5046260;28;20299;-65
2023/07/16 08:12:55;;;;;;;46.13;9.30;;;26.40;48.40;;;;;;5048930;28;20220;-65
2023/07/16 08:15:22;;;;;;;35.23;8.17;;;26.40;48.40;;;;;;5041780;28;20661;-71
2023/07/16 08:17:49;;;;;;;25.23;6.77;;;26.40;48.40;;;;;;5029045;28;20203;-81
2023/07/16 08:20:16;;;;;;;39.07;8.00;;;26.40;48.90;;;;;;5041472;28;20231;-77
2023/07/16 08:22:44;;;;;;;32.30;7.70;;;26.40;48.40;;;;;;5039875;28;20200;-79
2023/07/16 08:25:11;;;;;;;28.53;7.23;;;26.50;48.50;;;;;;5030046;28;20237;-79
2023/07/16 08:27:38;;;;;;;32.93;7.53;;;26.50;48.60;;;;;;5035779;28;20231;-81
2023/07/16 08:30:06;;;;;;;45.67;8.67;;;26.50;48.60;;;;;;5036106;28;20205;-80
2023/07/16 08:32:33;;;;;;;40.83;8.00;;;26.50;48.60;;;;;;5039537;28;20203;-72
2023/07/16 08:35:00;;;;;;;56.00;9.97;;;26.50;48.60;;;;;;5045927;28;20211;-72
2023/07/16 08:37:27;;;;;;;56.57;9.47;;;26.60;48.60;;;;;;5041411;28;20768;-74
2023/07/16 08:39:56;;;;;;;35.77;7.40;;;26.50;48.60;;;;;;5047670;28;20231;-66
2023/07/16 08:42:23;;;;;;;25.47;6.80;;;26.50;48.60;;;;;;5046760;28;20284;-70
2023/07/16 08:44:51;;;;;;;37.37;7.57;;;26.60;48.60;;;;;;5046865;28;20664;-65
2023/07/16 08:47:19;;;;;;;31.50;7.60;;;26.60;48.50;;;;;;5045671;28;20204;-77
2023/07/16 08:49:54;;;;;;;30.93;6.83;;;26.60;48.40;;;;;;5045665;28;20231;-66
2023/07/16 08:52:21;;;;;;;69.33;10.23;;;26.60;48.40;;;;;;5034129;28;20205;-65
2023/07/16 08:54:48;;;;;;;28.53;6.37;;;26.60;48.30;;;;;;5035822;28;20250;-65
2023/07/16 08:57:17;;;;;;;24.13;6.00;;;26.60;48.30;;;;;;5045490;28;20223;-66
2023/07/16 08:59:45;;;;;;;36.90;7.27;;;26.60;48.20;;;;;;5037062;28;20204;-65
2023/07/16 09:02:13;;;;;;;25.50;6.00;;;26.60;48.30;;;;;;5033570;28;20253;-66
2023/07/16 09:04:40;;;;;;;64.00;9.40;;;26.60;48.30;;;;;;5044385;28;20207;-66
2023/07/16 09:07:07;;;;;;;33.00;7.10;;;26.60;48.30;;;;;;5044313;28;20549;-65
2023/07/16 09:09:34;;;;;;;23.37;6.00;;;26.60;48.30;;;;;;5046761;28;20196;-69
2023/07/16 09:12:01;;;;;;;27.83;6.33;;;26.60;48.40;;;;;;5045818;28;20673;-69
2023/07/16 09:14:29;;;;;;;25.50;5.80;;;26.70;48.50;;;;;;5041431;28;20660;-68
2023/07/16 09:16:56;;;;;;;45.50;7.20;;;26.70;48.50;;;;;;5034615;28;20194;-65
2023/07/16 09:19:23;;;;;;;32.37;6.37;;;26.70;48.50;;;;;;5041493;28;20577;-72
2023/07/16 09:21:50;;;;;;;63.30;9.17;;;26.70;48.50;;;;;;5035018;28;20228;-71
2023/07/16 09:24:20;;;;;;;35.73;7.23;;;26.80;48.50;;;;;;5031422;28;20192;-69
2023/07/16 09:26:50;;;;;;;33.30;6.80;;;26.80;48.50;;;;;;5042285;28;20199;-73
2023/07/16 09:29:17;;;;;;;46.03;7.53;;;26.80;48.50;;;;;;5029808;28;20729;-70
2023/07/16 09:32:00;;;;;;;39.00;6.87;;;26.90;49.10;;;;;;5057168;28;20259;-70
2023/07/16 09:34:29;;;;;;;25.70;5.80;;;26.90;48.60;;;;;;5036259;28;20703;-72
2023/07/16 09:36:56;;;;;;;32.33;6.40;;;26.90;48.40;;;;;;5047481;28;20208;-69
2023/07/16 09:39:25;;;;;;;28.70;6.03;;;26.90;48.40;;;;;;5039091;28;20203;-69
2023/07/16 09:41:52;;;;;;;32.17;6.63;;;27.00;49.10;;;;;;5057544;28;20667;-69
2023/07/16 09:44:19;;;;;;;38.10;6.80;;;27.00;48.50;;;;;;5067906;28;20207;-70
2023/07/16 09:46:47;;;;;;;40.60;7.30;;;27.00;48.50;;;;;;5062252;28;20188;-69
2023/07/16 09:49:17;;;;;;;34.90;6.50;;;27.00;48.50;;;;;;5047476;28;20204;-69
2023/07/16 09:51:44;;;;;;;29.13;6.17;;;27.10;49.10;;;;;;5053688;28;20212;-72
2023/07/16 09:54:14;;;;;;;34.57;6.20;;;27.10;48.50;;;;;;5052185;28;20234;-71
2023/07/16 09:56:45;;;;;;;26.53;5.70;;;27.10;48.40;;;;;;5052042;28;20204;-69
2023/07/16 09:59:16;;;;;;;27.03;5.70;;;27.10;48.40;;;;;;5051351;28;20650;-72
2023/07/16 10:01:43;;;;;;;34.53;6.57;;;27.20;49.10;;;;;;5064959;28;20231;-69
2023/07/16 10:04:17;;;;;;;34.93;6.43;;;27.20;48.40;;;;;;5060947;28;20648;-69
2023/07/16 10:06:51;;;;;;;28.20;5.90;;;27.20;48.40;;;;;;5036003;28;20220;-72
2023/07/16 10:09:33;;;;;;;49.87;8.07;;;27.30;48.50;;;;;;5041312;28;20196;-69
2023/07/16 10:12:09;;;;;;;61.47;9.00;;;27.30;48.50;;;;;;5046643;28;20449;-66
2023/07/16 10:14:40;;;;;;;28.40;6.30;;;27.30;48.50;;;;;;5038331;28;20196;-67
2023/07/16 10:17:07;;;;;;;28.07;6.03;;;27.30;48.50;;;;;;5042176;28;20211;-71
2023/07/16 10:19:47;;;;;;;42.40;7.10;;;27.40;48.50;;;;;;5038430;28;20200;-68
2023/07/16 10:22:14;;;;;;;26.70;6.10;;;27.40;48.40;;;;;;5071371;28;20227;-66
2023/07/16 10:24:42;;;;;;;32.73;6.33;;;27.40;48.40;;;;;;5055584;28;20669;-65
2023/07/16 10:27:09;;;;;;;31.27;5.90;;;27.50;48.40;;;;;;5048016;28;20570;-72
2023/07/16 10:29:36;;;;;;;27.40;5.63;;;27.50;48.30;;;;;;5048531;28;20290;-65
2023/07/16 10:32:07;;;;;;;29.43;5.83;;;27.50;48.30;;;;;;5031121;28;20228;-71
2023/07/16 10:34:37;;;;;;;25.80;5.70;;;27.50;48.30;;;;;;5031152;28;20677;-66
2023/07/16 10:37:04;;;;;;;27.77;5.53;;;27.50;48.30;;;;;;5031517;28;20216;-74
2023/07/16 10:39:31;;;;;;;25.80;5.30;;;27.50;48.20;;;;;;5038058;28;20207;-76
2023/07/16 10:41:58;;;;;;;37.47;6.78;;;27.50;48.20;;;;;;5035086;28;20458;-75
2023/07/16 10:44:26;;;;;;;27.10;5.50;;;27.50;48.10;;;;;;5049431;28;20210;-72
2023/07/16 10:46:54;;;;;;;24.50;5.73;;;27.50;48.10;;;;;;5050538;28;20200;-72
2023/07/16 10:49:29;;;;;;;34.30;6.60;;;27.50;48.20;;;;;;5046269;28;20327;-66
2023/07/16 10:52:00;;;;;;;25.77;5.70;;;27.50;48.30;;;;;;5071025;28;20191;-77
2023/07/16 10:54:27;;;;;;;32.40;6.53;;;27.50;48.30;;;;;;5050618;28;20207;-69
2023/07/16 10:56:54;;;;;;;41.03;6.67;;;27.50;48.50;;;;;;5043047;28;20204;-70
2023/07/16 10:59:20;;;;;;;31.47;6.07;;;27.60;48.60;;;;;;5036151;28;20207;-73
2023/07/16 11:01:47;;;;;;;27.37;5.83;;;27.70;48.90;;;;;;5057574;28;20225;-73
2023/07/16 11:04:14;;;;;;;33.40;6.30;;;27.80;49.10;;;;;;5045908;28;20196;-68
2023/07/16 11:06:41;;;;;;;46.90;7.43;;;27.90;49.10;;;;;;5031164;28;20219;-69
2023/07/16 11:09:10;;;;;;;36.20;6.10;;;28.00;49.10;;;;;;5038742;28;20644;-69
2023/07/16 11:11:37;;;;;;;30.33;6.27;;;28.20;49.10;;;;;;5046865;28;20660;-68
2023/07/16 11:14:05;;;;;;;33.20;6.30;;;28.40;48.90;;;;;;5044974;28;20199;-72
2023/07/16 11:16:35;;;;;;;36.47;6.63;;;28.60;48.80;;;;;;5039250;28;20299;-68
2023/07/16 11:19:03;;;;;;;35.73;6.27;;;28.70;48.70;;;;;;5035657;28;20298;-67
2023/07/16 11:21:31;;;;;;;21.73;5.17;;;28.90;48.50;;;;;;5048559;28;20793;-68
2023/07/16 11:24:10;;;;;;;27.33;5.87;;;29.10;48.60;;;;;;5057654;28;20205;-67
2023/07/16 11:26:37;;;;;;;29.40;5.83;;;29.20;48.30;;;;;;5041727;28;20204;-67
2023/07/16 11:29:14;;;;;;;33.40;6.40;;;29.40;48.20;;;;;;5046032;28;20660;-68
2023/07/16 11:31:41;;;;;;;20.40;5.23;;;29.50;48.00;;;;;;5055668;28;20988;-67
2023/07/16 11:34:08;;;;;;;37.53;6.87;;;29.70;47.80;;;;;;5037428;28;20201;-71
2023/07/16 11:36:35;;;;;;;29.50;5.80;;;29.70;47.70;;;;;;5049780;28;20563;-69
2023/07/16 11:39:04;;;;;;;23.90;6.00;;;29.80;47.50;;;;;;5047806;28;20623;-68
2023/07/16 11:41:33;;;;;;;37.80;6.30;;;30.00;47.60;;;;;;5047830;28;20453;-72
2023/07/16 11:44:01;;;;;;;39.30;6.77;;;30.10;47.60;;;;;;5043573;28;20686;-69
2023/07/16 11:46:33;;;;;;;36.63;6.47;;;30.20;47.60;;;;;;5045949;28;20212;-68
2023/07/16 11:49:00;;;;;;;27.23;5.63;;;30.20;47.30;;;;;;5042872;28;20205;-67
2023/07/16 11:51:27;;;;;;;56.93;8.50;;;30.40;47.30;;;;;;5034407;28;20205;-68
2023/07/16 11:53:56;;;;;;;27.93;5.63;;;30.50;47.20;;;;;;5039376;28;20712;-68
2023/07/16 11:56:23;;;;;;;45.07;7.17;;;30.60;46.90;;;;;;5044129;28;20207;-68
2023/07/16 11:58:52;;;;;;;31.50;5.87;;;30.70;46.90;;;;;;5038478;28;20197;-67
2023/07/16 12:01:19;;;;;;;34.97;6.43;;;30.70;46.60;;;;;;5040010;28;20308;-68
2023/07/16 12:03:46;;;;;;;21.20;5.27;;;30.80;46.60;;;;;;5034198;28;20212;-67
2023/07/16 12:06:12;;;;;;;28.43;5.50;;;30.90;46.60;;;;;;5038739;28;20200;-67
2023/07/16 12:08:39;;;;;;;46.53;7.37;;;31.00;46.40;;;;;;5038284;28;20216;-69
2023/07/16 12:11:07;;;;;;;44.57;7.07;;;31.20;46.50;;;;;;5043769;28;20219;-68
2023/07/16 12:13:34;;;;;;;49.13;7.50;;;31.20;46.50;;;;;;5030730;28;20201;-68
2023/07/16 12:16:02;;;;;;;37.55;6.43;;;31.40;46.40;;;;;;5029799;28;20216;-67
2023/07/16 12:18:30;;;;;;;35.72;6.43;;;31.40;46.10;;;;;;5044124;28;20574;-68
2023/07/16 12:20:57;;;;;;;20.63;4.93;;;31.60;45.90;;;;;;5037363;28;20211;-67
2023/07/16 12:23:24;;;;;;;40.80;6.78;;;31.60;45.50;;;;;;5033709;28;20197;-67
2023/07/16 12:25:51;;;;;;;27.63;5.57;;;31.60;45.50;;;;;;5045658;28;20200;-73
2023/07/16 12:28:18;;;;;;;22.80;5.27;;;31.70;45.30;;;;;;5039165;28;20991;-70
2023/07/16 12:30:45;;;;;;;43.28;7.22;;;31.70;45.10;;;;;;5035902;28;20196;-68
2023/07/16 12:33:13;;;;;;;32.30;6.28;;;31.70;45.20;;;;;;5033998;28;20200;-68
2023/07/16 12:35:40;;;;;;;29.73;5.80;;;31.70;44.80;;;;;;5028670;28;20212;-70
2023/07/16 12:38:07;;;;;;;23.35;5.63;;;31.70;44.90;;;;;;5031244;28;20304;-75